Time;durP1;ratioP1;P1;durP2;ratioP2;P2;SDS_P1;SDS_P2;PMS_P1;PMS_P2;Temp;Humidity;BMP_temperature;BMP_pressure;BME280_temperature;BME280_humidity;BME280_pressure;Samples;Min_cycle;Max_cycle;Signal;HPM_P1;HPM_P2
2021/11/25 00:00:43;;;;;;;78.93;40.58;;;;;;;;;;5024753;28;20024;-52
2021/11/25 00:03:10;;;;;;;67.43;35.60;;;;;;;;;;5024485;28;20132;-50
2021/11/25 00:05:37;;;;;;;86.47;41.03;;;;;;;;;;5024562;28;20040;-49
2021/11/25 00:08:04;;;;;;;79.13;41.10;;;;;;;;;;5025843;28;20028;-49
2021/11/25 00:10:31;;;;;;;72.80;39.28;;;;;;;;;;5051762;28;20025;-50
2021/11/25 00:12:59;;;;;;;62.92;33.38;;;;;;;;;;5054948;28;20017;-51
2021/11/25 00:15:26;;;;;;;67.50;34.55;;;;;;;;;;5055013;28;20021;-54
2021/11/25 00:17:53;;;;;;;62.55;32.92;;;;;;;;;;5055060;28;20033;-49
2021/11/25 00:20:22;;;;;;;66.60;34.95;;;;;;;;;;5054982;28;20029;-51
2021/11/25 00:22:48;;;;;;;62.47;33.00;;;;;;;;;;5054923;28;20029;-51
2021/11/25 00:25:14;;;;;;;65.55;34.72;;;;;;;;;;5054738;28;20079;-51
2021/11/25 00:27:41;;;;;;;66.18;34.10;;;;;;;;;;5054727;28;20029;-51
2021/11/25 00:30:08;;;;;;;66.28;34.45;;;;;;;;;;5054797;28;20557;-51
2021/11/25 00:32:34;;;;;;;66.72;33.83;;;;;;;;;;5055002;28;20078;-51
2021/11/25 00:35:00;;;;;;;65.18;33.67;;;;;;;;;;5054930;28;20109;-50
2021/11/25 00:37:26;;;;;;;71.57;35.80;;;;;;;;;;5054709;28;20025;-51
2021/11/25 00:39:53;;;;;;;67.75;34.33;;;;;;;;;;5054717;28;20146;-52
2021/11/25 00:42:19;;;;;;;74.82;35.20;;;;;;;;;;5054490;28;20024;-48
2021/11/25 00:44:47;;;;;;;79.93;38.08;;;;;;;;;;5054475;28;20025;-48
2021/11/25 00:47:13;;;;;;;73.35;37.55;;;;;;;;;;5054482;28;20029;-50
2021/11/25 00:49:39;;;;;;;70.43;35.60;;;;;;;;;;5054513;28;20032;-52
2021/11/25 00:52:06;;;;;;;70.97;36.53;;;;;;;;;;5054345;28;20053;-51
2021/11/25 00:54:32;;;;;;;64.03;31.88;;;;;;;;;;5054337;28;20389;-51
2021/11/25 00:56:58;;;;;;;63.80;32.97;;;;;;;;;;5054526;28;20021;-52
2021/11/25 00:59:24;;;;;;;64.43;34.15;;;;;;;;;;5054108;28;20063;-51
2021/11/25 01:01:50;;;;;;;62.85;31.92;;;;;;;;;;5054430;28;20025;-52
2021/11/25 01:04:16;;;;;;;67.93;32.33;;;;;;;;;;5054364;28;20135;-52
2021/11/25 01:06:42;;;;;;;61.83;33.42;;;;;;;;;;5054142;28;20033;-53
2021/11/25 01:09:09;;;;;;;60.95;32.47;;;;;;;;;;5054271;28;20086;-51
2021/11/25 01:11:37;;;;;;;55.40;30.10;;;;;;;;;;5054103;28;20454;-54
2021/11/25 01:14:03;;;;;;;66.80;33.28;;;;;;;;;;5053860;28;20017;-52
2021/11/25 01:16:30;;;;;;;61.80;32.85;;;;;;;;;;5054076;28;20032;-48
2021/11/25 01:18:56;;;;;;;70.40;33.45;;;;;;;;;;5054222;28;20028;-52
2021/11/25 01:21:22;;;;;;;64.60;33.15;;;;;;;;;;5053776;28;20028;-52
2021/11/25 01:23:48;;;;;;;68.95;34.95;;;;;;;;;;5052757;28;20037;-51
2021/11/25 01:26:14;;;;;;;67.47;33.92;;;;;;;;;;5053723;28;20047;-52
2021/11/25 01:28:40;;;;;;;72.53;35.15;;;;;;;;;;5053682;28;20082;-52
2021/11/25 01:31:06;;;;;;;67.43;33.58;;;;;;;;;;5053897;28;20029;-51
2021/11/25 01:33:33;;;;;;;63.33;32.80;;;;;;;;;;5053599;28;20021;-50
2021/11/25 01:36:00;;;;;;;63.90;34.78;;;;;;;;;;5053684;28;20075;-52
2021/11/25 01:38:27;;;;;;;67.22;33.85;;;;;;;;;;5053617;28;20385;-52
2021/11/25 01:40:53;;;;;;;67.40;33.33;;;;;;;;;;5053615;28;20470;-53
2021/11/25 01:43:21;;;;;;;67.32;34.63;;;;;;;;;;5053442;28;20100;-53
2021/11/25 01:45:48;;;;;;;69.38;34.58;;;;;;;;;;5053396;28;20466;-52
2021/11/25 01:48:15;;;;;;;62.25;33.08;;;;;;;;;;5053715;28;20420;-52
2021/11/25 01:50:41;;;;;;;64.65;33.63;;;;;;;;;;5053270;28;20028;-52
2021/11/25 01:53:07;;;;;;;64.68;32.60;;;;;;;;;;5053256;28;20098;-51
2021/11/25 01:55:33;;;;;;;64.78;32.95;;;;;;;;;;5053240;28;20029;-51
2021/11/25 01:57:59;;;;;;;61.97;30.92;;;;;;;;;;5053161;28;20432;-51
2021/11/25 02:00:49;;;;;;;65.82;33.10;;;;;;;;;;5053478;28;20035;-48
2021/11/25 02:03:15;;;;;;;58.35;30.63;;;;;;;;;;5011623;28;20481;-51
2021/11/25 02:05:42;;;;;;;59.53;29.85;;;;;;;;;;5011440;28;20042;-51
2021/11/25 02:08:08;;;;;;;59.55;31.70;;;;;;;;;;5011640;28;20518;-51
2021/11/25 02:10:35;;;;;;;58.15;30.05;;;;;;;;;;5011711;28;20551;-49
2021/11/25 02:13:01;;;;;;;60.30;30.65;;;;;;;;;;5011412;28;20030;-51
2021/11/25 02:15:34;;;;;;;61.50;32.00;;;;;;;;;;5017542;28;20065;-51
2021/11/25 02:18:00;;;;;;;57.95;29.98;;;;;;;;;;5001392;28;20494;-50
2021/11/25 02:20:30;;;;;;;59.75;31.05;;;;;;;;;;5017943;28;20605;-51
2021/11/25 02:22:56;;;;;;;57.50;29.55;;;;;;;;;;5017867;28;20030;-51
2021/11/25 02:25:23;;;;;;;57.60;30.65;;;;;;;;;;5017830;28;20038;-51
2021/11/25 02:27:49;;;;;;;56.85;30.58;;;;;;;;;;5017914;28;20116;-52
2021/11/25 02:30:15;;;;;;;57.70;29.98;;;;;;;;;;5017752;28;20034;-51
2021/11/25 02:32:44;;;;;;;62.60;29.50;;;;;;;;;;5017884;28;20096;-51
2021/11/25 02:35:12;;;;;;;57.80;29.83;;;;;;;;;;5018043;28;20021;-47
2021/11/25 02:37:38;;;;;;;53.13;27.80;;;;;;;;;;5017976;28;20534;-53
2021/11/25 02:40:40;;;;;;;52.60;28.48;;;;;;;;;;5036566;28;20086;-49
2021/11/25 02:43:08;;;;;;;52.42;28.17;;;;;;;;;;5017774;28;20062;-53
2021/11/25 02:45:47;;;;;;;52.20;28.08;;;;;;;;;;5017797;28;20100;-51
2021/11/25 02:48:14;;;;;;;57.40;28.20;;;;;;;;;;5001244;28;20253;-51
2021/11/25 02:50:40;;;;;;;56.50;30.08;;;;;;;;;;5017363;28;20565;-52
2021/11/25 02:53:07;;;;;;;65.53;32.38;;;;;;;;;;5017521;28;20065;-52
2021/11/25 02:55:33;;;;;;;68.70;32.95;;;;;;;;;;5017652;28;20036;-51
2021/11/25 02:57:59;;;;;;;60.45;29.48;;;;;;;;;;5017580;28;20042;-52
2021/11/25 03:00:25;;;;;;;49.30;27.13;;;;;;;;;;5017724;28;20497;-51
2021/11/25 03:03:00;;;;;;;56.35;28.88;;;;;;;;;;5017789;28;20046;-51
2021/11/25 03:05:29;;;;;;;57.63;29.88;;;;;;;;;;5017260;28;20498;-49
2021/11/25 03:07:57;;;;;;;49.05;26.55;;;;;;;;;;5017604;28;20053;-51
2021/11/25 03:10:26;;;;;;;54.97;29.05;;;;;;;;;;5017498;28;20086;-52
2021/11/25 03:12:52;;;;;;;55.15;28.05;;;;;;;;;;5017527;28;20625;-51
2021/11/25 03:15:18;;;;;;;51.30;26.15;;;;;;;;;;5017581;28;20022;-52
2021/11/25 03:17:44;;;;;;;52.70;26.83;;;;;;;;;;5048450;28;20033;-52
2021/11/25 03:20:12;;;;;;;56.50;28.33;;;;;;;;;;5058953;28;20025;-51
2021/11/25 03:22:38;;;;;;;51.22;25.08;;;;;;;;;;5059249;28;20025;-52
2021/11/25 03:25:04;;;;;;;52.38;26.02;;;;;;;;;;5058080;28;20037;-52
2021/11/25 03:27:30;;;;;;;49.92;26.42;;;;;;;;;;5055413;28;20082;-49
2021/11/25 03:29:56;;;;;;;55.97;28.20;;;;;;;;;;5055955;28;20017;-50
2021/11/25 03:32:23;;;;;;;52.40;26.67;;;;;;;;;;5056039;28;20032;-51
2021/11/25 03:34:49;;;;;;;47.97;25.42;;;;;;;;;;5055816;28;20025;-50
2021/11/25 03:37:15;;;;;;;48.42;25.98;;;;;;;;;;5055964;28;20036;-50
2021/11/25 03:39:41;;;;;;;45.88;25.25;;;;;;;;;;5055790;28;20035;-49
2021/11/25 03:42:07;;;;;;;47.25;24.98;;;;;;;;;;5055911;28;20025;-51
2021/11/25 03:44:33;;;;;;;49.35;25.48;;;;;;;;;;5055582;28;20064;-51
2021/11/25 03:47:02;;;;;;;47.28;25.77;;;;;;;;;;5055718;28;20037;-52
2021/11/25 03:49:28;;;;;;;48.17;26.08;;;;;;;;;;5055534;28;20548;-51
2021/11/25 03:51:54;;;;;;;50.65;25.50;;;;;;;;;;5055296;28;20106;-51
2021/11/25 03:54:20;;;;;;;47.30;26.25;;;;;;;;;;5055894;28;20488;-51
2021/11/25 03:56:46;;;;;;;47.35;25.10;;;;;;;;;;5055471;28;20064;-51
2021/11/25 03:59:12;;;;;;;47.35;25.10;;;;;;;;;;5055410;28;20039;-50
2021/11/25 04:01:38;;;;;;;48.85;26.45;;;;;;;;;;5055867;28;20029;-52
2021/11/25 04:04:06;;;;;;;45.30;24.08;;;;;;;;;;5055290;28;20025;-47
2021/11/25 04:06:32;;;;;;;44.72;25.85;;;;;;;;;;5055411;28;20041;-50
2021/11/25 04:08:58;;;;;;;46.15;25.33;;;;;;;;;;5055168;28;20603;-50
2021/11/25 04:11:24;;;;;;;44.63;24.88;;;;;;;;;;5055185;28;20029;-51
2021/11/25 04:13:50;;;;;;;46.88;25.02;;;;;;;;;;5055037;28;20100;-51
2021/11/25 04:16:16;;;;;;;51.03;26.15;;;;;;;;;;5055395;28;20519;-50
2021/11/25 04:18:45;;;;;;;52.13;28.13;;;;;;;;;;5055016;28;20025;-47
2021/11/25 04:21:13;;;;;;;48.75;25.90;;;;;;;;;;5055040;28;20074;-50
2021/11/25 04:23:39;;;;;;;51.80;27.02;;;;;;;;;;5055294;28;20162;-50
2021/11/25 04:26:05;;;;;;;48.80;25.73;;;;;;;;;;5054967;28;20052;-49
2021/11/25 04:28:32;;;;;;;44.28;24.48;;;;;;;;;;5054915;28;20079;-51
2021/11/25 04:36:31;;;;;;;57.30;31.50;;;;;;;;;;5054621;28;20120;-51
2021/11/25 04:38:58;;;;;;;59.72;30.65;;;;;;;;;;5054742;28;20056;-53
2021/11/25 04:41:24;;;;;;;62.97;32.08;;;;;;;;;;5054780;28;20036;-50
2021/11/25 04:43:50;;;;;;;73.35;34.28;;;;;;;;;;5054566;28;20039;-51
2021/11/25 04:46:16;;;;;;;68.75;33.60;;;;;;;;;;5054331;28;20154;-53
2021/11/25 04:48:42;;;;;;;74.20;34.28;;;;;;;;;;5054494;28;20032;-54
2021/11/25 04:51:08;;;;;;;65.07;33.35;;;;;;;;;;5054249;28;20027;-54
2021/11/25 04:53:34;;;;;;;62.45;31.98;;;;;;;;;;5054391;28;20031;-51
2021/11/25 04:56:01;;;;;;;62.92;32.35;;;;;;;;;;5054414;28;20096;-52
2021/11/25 04:58:27;;;;;;;61.90;31.05;;;;;;;;;;5054377;28;20029;-48
2021/11/25 05:00:55;;;;;;;60.65;31.80;;;;;;;;;;5054132;28;20029;-52
2021/11/25 05:03:21;;;;;;;63.17;31.60;;;;;;;;;;5054432;28;20033;-51
2021/11/25 05:05:48;;;;;;;54.85;29.08;;;;;;;;;;5054199;28;20055;-48
2021/11/25 05:08:14;;;;;;;58.53;30.88;;;;;;;;;;5054168;28;20027;-51
2021/11/25 05:10:40;;;;;;;57.88;29.40;;;;;;;;;;5052718;28;20444;-50
2021/11/25 05:13:07;;;;;;;76.95;39.22;;;;;;;;;;5053942;28;20025;-50
2021/11/25 05:15:33;;;;;;;69.68;38.92;;;;;;;;;;5053799;28;20033;-52
2021/11/25 05:17:59;;;;;;;69.55;37.60;;;;;;;;;;5054033;28;20027;-52
2021/11/25 05:20:28;;;;;;;70.93;36.45;;;;;;;;;;5053761;28;20066;-52
2021/11/25 05:22:54;;;;;;;76.97;37.53;;;;;;;;;;5053981;28;20512;-51
2021/11/25 05:25:23;;;;;;;67.80;33.60;;;;;;;;;;5053791;28;20529;-50
2021/11/25 05:27:49;;;;;;;73.15;34.50;;;;;;;;;;5053869;28;20465;-51
2021/11/25 05:30:16;;;;;;;70.57;33.92;;;;;;;;;;5053605;28;20032;-50
2021/11/25 05:32:43;;;;;;;69.93;33.45;;;;;;;;;;5053704;28;20035;-51
2021/11/25 05:35:10;;;;;;;77.72;34.67;;;;;;;;;;5053631;28;20028;-50
2021/11/25 05:37:36;;;;;;;74.20;35.70;;;;;;;;;;5053721;28;20392;-48
2021/11/25 05:40:04;;;;;;;77.82;34.38;;;;;;;;;;5053870;28;20017;-51
2021/11/25 05:42:31;;;;;;;86.65;38.55;;;;;;;;;;5053824;28;20048;-49
2021/11/25 05:44:58;;;;;;;108.25;46.35;;;;;;;;;;5053295;28;20028;-52
2021/11/25 05:47:24;;;;;;;113.60;46.83;;;;;;;;;;5053597;28;20079;-54
2021/11/25 05:49:50;;;;;;;95.55;43.22;;;;;;;;;;5052880;28;20025;-51
2021/11/25 05:52:16;;;;;;;94.22;42.70;;;;;;;;;;5053645;28;20045;-53
2021/11/25 05:54:42;;;;;;;96.60;46.72;;;;;;;;;;5053214;28;20409;-52
2021/11/25 05:57:08;;;;;;;96.55;45.58;;;;;;;;;;5053292;28;20048;-51
2021/11/25 05:59:34;;;;;;;95.22;44.35;;;;;;;;;;5053382;28;20025;-49
2021/11/25 06:02:03;;;;;;;97.47;47.47;;;;;;;;;;5053168;28;20025;-48
2021/11/25 06:04:30;;;;;;;85.57;39.97;;;;;;;;;;5051745;28;20017;-52
2021/11/25 06:06:56;;;;;;;82.70;40.97;;;;;;;;;;5052219;28;20041;-54
2021/11/25 06:09:22;;;;;;;85.78;38.00;;;;;;;;;;5053424;28;20017;-54
2021/11/25 06:11:49;;;;;;;71.03;35.85;;;;;;;;;;5053284;28;20025;-54
2021/11/25 06:14:16;;;;;;;68.25;33.40;;;;;;;;;;5053056;28;20021;-54
2021/11/25 06:16:42;;;;;;;68.30;33.15;;;;;;;;;;5053065;28;20127;-54
2021/11/25 06:19:08;;;;;;;70.80;35.13;;;;;;;;;;5053055;28;20108;-53
2021/11/25 06:21:34;;;;;;;66.72;34.47;;;;;;;;;;5052974;28;20033;-49
2021/11/25 06:24:00;;;;;;;72.78;33.20;;;;;;;;;;5053143;28;20075;-48
2021/11/25 06:26:26;;;;;;;61.22;31.60;;;;;;;;;;5053157;28;20436;-48
2021/11/25 06:28:54;;;;;;;67.68;30.83;;;;;;;;;;5052935;28;20124;-56
2021/11/25 06:31:21;;;;;;;70.47;33.55;;;;;;;;;;5052803;28;20028;-48
2021/11/25 06:33:50;;;;;;;64.57;31.77;;;;;;;;;;5052793;28;20393;-54
2021/11/25 06:36:16;;;;;;;68.40;31.90;;;;;;;;;;5053121;28;20155;-48
2021/11/25 06:38:42;;;;;;;72.32;32.90;;;;;;;;;;5053248;28;20112;-55
2021/11/25 06:41:08;;;;;;;72.88;33.22;;;;;;;;;;5052898;28;20033;-53
2021/11/25 06:43:35;;;;;;;76.60;35.55;;;;;;;;;;5052744;28;20017;-51
2021/11/25 06:46:01;;;;;;;91.45;41.80;;;;;;;;;;5052595;28;20126;-53
2021/11/25 06:48:28;;;;;;;82.72;39.17;;;;;;;;;;5052781;28;20476;-55
2021/11/25 06:50:54;;;;;;;76.85;38.67;;;;;;;;;;5052648;28;20063;-54
2021/11/25 06:53:24;;;;;;;76.22;36.42;;;;;;;;;;5052565;28;20095;-52
2021/11/25 06:55:50;;;;;;;70.88;34.20;;;;;;;;;;5052770;28;20493;-52
2021/11/25 06:58:16;;;;;;;65.68;32.33;;;;;;;;;;5052692;28;20489;-53
2021/11/25 07:00:42;;;;;;;61.42;30.40;;;;;;;;;;5054390;28;20153;-55
2021/11/25 07:03:08;;;;;;;60.20;30.17;;;;;;;;;;5056549;28;20025;-53
2021/11/25 07:05:35;;;;;;;54.38;27.85;;;;;;;;;;5056684;28;20041;-51
2021/11/25 07:08:01;;;;;;;46.42;27.38;;;;;;;;;;5056833;28;20484;-50
2021/11/25 07:10:28;;;;;;;47.75;25.95;;;;;;;;;;5056488;28;20386;-48
2021/11/25 07:12:54;;;;;;;44.47;24.20;;;;;;;;;;5056401;28;20029;-48
2021/11/25 07:15:23;;;;;;;42.92;24.35;;;;;;;;;;5056620;28;20025;-51
2021/11/25 07:17:50;;;;;;;47.45;27.10;;;;;;;;;;5056370;28;20025;-52
2021/11/25 07:20:16;;;;;;;49.55;27.10;;;;;;;;;;5056253;28;20116;-54
2021/11/25 07:22:42;;;;;;;50.85;27.65;;;;;;;;;;5056300;28;20055;-51
2021/11/25 07:25:10;;;;;;;54.97;28.33;;;;;;;;;;5056065;28;20037;-53
2021/11/25 07:27:36;;;;;;;52.85;25.92;;;;;;;;;;5056019;28;20029;-48
2021/11/25 07:30:03;;;;;;;45.00;25.77;;;;;;;;;;5055910;28;20092;-53
2021/11/25 07:32:29;;;;;;;47.17;24.60;;;;;;;;;;5055873;28;20029;-54
2021/11/25 07:34:55;;;;;;;41.80;22.98;;;;;;;;;;5055858;28;20029;-50
2021/11/25 07:37:24;;;;;;;32.78;21.40;;;;;;;;;;5055886;28;20029;-47
2021/11/25 07:39:50;;;;;;;35.63;20.58;;;;;;;;;;5055775;28;20025;-54
2021/11/25 07:42:16;;;;;;;36.13;22.80;;;;;;;;;;5055812;28;20381;-54
2021/11/25 07:44:43;;;;;;;34.03;21.65;;;;;;;;;;5055513;28;20473;-51
2021/11/25 07:47:09;;;;;;;35.40;23.35;;;;;;;;;;5055451;28;20040;-54
2021/11/25 07:49:38;;;;;;;44.45;24.98;;;;;;;;;;5055317;28;20025;-58
2021/11/25 07:52:05;;;;;;;53.05;31.10;;;;;;;;;;5053924;28;20485;-59
2021/11/25 07:54:31;;;;;;;66.53;38.03;;;;;;;;;;5055384;28;20527;-60
2021/11/25 07:57:00;;;;;;;58.63;35.67;;;;;;;;;;5055319;28;20606;-56
2021/11/25 07:59:26;;;;;;;89.38;52.65;;;;;;;;;;5055145;28;20040;-55
2021/11/25 08:01:53;;;;;;;56.58;36.63;;;;;;;;;;5055028;28;20055;-57
2021/11/25 08:04:19;;;;;;;57.25;32.33;;;;;;;;;;5055207;28;20033;-54
2021/11/25 08:06:45;;;;;;;58.70;31.70;;;;;;;;;;5055134;28;20033;-54
2021/11/25 08:09:14;;;;;;;62.05;30.33;;;;;;;;;;5055109;28;20029;-55
2021/11/25 08:11:40;;;;;;;49.20;28.02;;;;;;;;;;5053323;28;20025;-55
2021/11/25 08:14:06;;;;;;;55.13;31.42;;;;;;;;;;5054919;28;20013;-52
2021/11/25 08:16:33;;;;;;;64.88;35.38;;;;;;;;;;5055153;28;20036;-56
2021/11/25 08:18:59;;;;;;;75.47;35.55;;;;;;;;;;5055048;28;20078;-55
2021/11/25 08:21:25;;;;;;;57.33;33.58;;;;;;;;;;5054842;28;20526;-51
2021/11/25 08:23:54;;;;;;;53.72;32.10;;;;;;;;;;5055169;28;20029;-52
2021/11/25 08:26:20;;;;;;;58.72;31.80;;;;;;;;;;5054860;28;20033;-52
2021/11/25 08:28:47;;;;;;;65.65;35.15;;;;;;;;;;5054749;28;20032;-52
2021/11/25 08:31:13;;;;;;;90.80;44.88;;;;;;;;;;5054735;28;20036;-45
2021/11/25 08:33:39;;;;;;;78.90;42.80;;;;;;;;;;5054619;28;20025;-50
2021/11/25 08:36:06;;;;;;;106.05;51.55;;;;;;;;;;5054799;28;20028;-49
2021/11/25 08:38:33;;;;;;;100.38;54.22;;;;;;;;;;5054792;28;20033;-47
2021/11/25 08:41:00;;;;;;;93.22;49.40;;;;;;;;;;5054557;28;20020;-51
2021/11/25 08:43:26;;;;;;;60.67;33.40;;;;;;;;;;5054259;28;20116;-52
2021/11/25 08:45:52;;;;;;;79.53;38.63;;;;;;;;;;5053281;28;20072;-46
2021/11/25 08:48:18;;;;;;;59.47;33.60;;;;;;;;;;5054480;28;20124;-55
2021/11/25 08:50:44;;;;;;;118.50;59.33;;;;;;;;;;5054246;28;20021;-55
2021/11/25 08:53:11;;;;;;;57.97;32.95;;;;;;;;;;5054233;28;20389;-56
2021/11/25 08:55:37;;;;;;;90.00;47.80;;;;;;;;;;5052916;28;20037;-51
2021/11/25 08:58:07;;;;;;;73.88;39.58;;;;;;;;;;5054242;28;20113;-51
2021/11/25 09:00:34;;;;;;;70.28;38.88;;;;;;;;;;5054039;28;20033;-50
2021/11/25 09:03:01;;;;;;;104.15;54.25;;;;;;;;;;5054132;28;20032;-53
2021/11/25 09:05:33;;;;;;;74.93;40.72;;;;;;;;;;5054206;28;20025;-46
2021/11/25 09:08:02;;;;;;;66.50;38.83;;;;;;;;;;5054045;28;20025;-53
2021/11/25 09:10:29;;;;;;;62.85;35.70;;;;;;;;;;5054048;28;20110;-53
2021/11/25 09:12:55;;;;;;;57.10;33.97;;;;;;;;;;5053640;28;20021;-53
2021/11/25 09:15:24;;;;;;;63.05;33.20;;;;;;;;;;5053942;28;20070;-54
2021/11/25 09:17:50;;;;;;;56.40;31.60;;;;;;;;;;5053905;28;20397;-51
2021/11/25 09:20:16;;;;;;;49.83;28.90;;;;;;;;;;5053875;28;20037;-49
2021/11/25 09:22:43;;;;;;;47.85;28.15;;;;;;;;;;5053607;28;20523;-54
2021/11/25 09:25:09;;;;;;;59.38;33.35;;;;;;;;;;5052927;28;20033;-54
2021/11/25 09:27:35;;;;;;;176.63;72.28;;;;;;;;;;5053711;28;20041;-54
2021/11/25 09:30:01;;;;;;;71.78;35.22;;;;;;;;;;5053710;28;20049;-54
2021/11/25 09:32:27;;;;;;;91.00;46.65;;;;;;;;;;5053667;28;20086;-57
2021/11/25 09:34:54;;;;;;;61.22;32.85;;;;;;;;;;5053670;28;20025;-56
2021/11/25 09:37:20;;;;;;;68.30;37.70;;;;;;;;;;5053874;28;20024;-56
2021/11/25 09:39:46;;;;;;;73.40;38.75;;;;;;;;;;5054168;28;20159;-56
2021/11/25 09:42:17;;;;;;;73.47;39.40;;;;;;;;;;5053471;28;20043;-55
2021/11/25 09:44:43;;;;;;;66.50;37.15;;;;;;;;;;5053553;28;20517;-54
2021/11/25 09:47:09;;;;;;;72.72;37.33;;;;;;;;;;5053619;28;20076;-55
2021/11/25 09:49:36;;;;;;;56.72;32.67;;;;;;;;;;5053548;28;20029;-54
2021/11/25 09:52:02;;;;;;;56.75;32.78;;;;;;;;;;5053253;28;20052;-54
2021/11/25 09:54:28;;;;;;;69.22;37.25;;;;;;;;;;5053597;28;20021;-51
2021/11/25 09:56:55;;;;;;;69.78;37.38;;;;;;;;;;5053349;28;20049;-54
2021/11/25 09:59:21;;;;;;;64.47;39.22;;;;;;;;;;5053601;28;20037;-54
2021/11/25 10:01:47;;;;;;;67.93;39.83;;;;;;;;;;5053348;28;20025;-54
2021/11/25 10:04:13;;;;;;;71.50;41.22;;;;;;;;;;5053536;28;20017;-54
2021/11/25 10:06:53;;;;;;;72.57;38.60;;;;;;;;;;5053245;28;20033;-54
2021/11/25 10:09:29;;;;;;;69.32;40.47;;;;;;;;;;5053414;28;20469;-54
2021/11/25 10:11:55;;;;;;;79.03;42.60;;;;;;;;;;5052950;28;20029;-46
2021/11/25 10:14:22;;;;;;;69.97;37.92;;;;;;;;;;5053391;28;20029;-54
2021/11/25 10:16:50;;;;;;;66.07;38.17;;;;;;;;;;5053226;28;20029;-54
2021/11/25 10:19:24;;;;;;;60.92;34.80;;;;;;;;;;5053048;28;20393;-54
2021/11/25 10:21:56;;;;;;;63.70;37.15;;;;;;;;;;5053608;28;20023;-54
2021/11/25 10:24:41;;;;;;;67.75;37.33;;;;;;;;;;5053104;28;20033;-54
2021/11/25 10:27:14;;;;;;;72.05;39.58;;;;;;;;;;5053173;28;20040;-46
2021/11/25 10:29:40;;;;;;;78.95;42.03;;;;;;;;;;5053116;28;20025;-51
2021/11/25 15:37:48;;;;;;;158.00;76.18;;;;;;;;;;5110732;27;20381;-52
2021/11/25 15:40:15;;;;;;;150.45;79.72;;;;;;;;;;5110909;28;20022;-54
2021/11/25 15:42:48;;;;;;;170.07;88.03;;;;;;;;;;5110542;28;20073;-53
2021/11/25 15:45:15;;;;;;;150.75;79.65;;;;;;;;;;5110589;28;20046;-53
2021/11/25 15:47:41;;;;;;;142.50;74.88;;;;;;;;;;5110465;28;20024;-54
2021/11/25 15:50:12;;;;;;;129.35;68.35;;;;;;;;;;5110483;28;20096;-53
2021/11/25 15:52:38;;;;;;;141.25;77.75;;;;;;;;;;5110343;28;20016;-52
2021/11/25 15:55:04;;;;;;;142.38;76.35;;;;;;;;;;5110373;28;20016;-52
2021/11/25 15:57:31;;;;;;;115.78;63.13;;;;;;;;;;5110754;28;20112;-53
2021/11/25 15:59:57;;;;;;;121.00;65.45;;;;;;;;;;5110258;28;20047;-53
2021/11/25 16:02:23;;;;;;;137.50;69.78;;;;;;;;;;5110209;28;20031;-49
2021/11/25 16:04:50;;;;;;;139.32;69.65;;;;;;;;;;5110126;28;20016;-50
2021/11/25 16:07:16;;;;;;;135.35;74.35;;;;;;;;;;5110412;28;20023;-52
2021/11/25 16:09:42;;;;;;;142.90;80.13;;;;;;;;;;5107417;28;20022;-52
2021/11/25 16:12:09;;;;;;;146.45;78.90;;;;;;;;;;5110020;28;20019;-52
2021/11/25 16:15:45;;;;;;;146.48;75.97;;;;;;;;;;5054412;28;20528;-51
2021/11/25 16:18:11;;;;;;;170.88;84.10;;;;;;;;;;5043143;28;20029;-51
2021/11/25 16:20:37;;;;;;;141.13;70.68;;;;;;;;;;5045952;28;20037;-52
2021/11/25 16:23:05;;;;;;;173.63;81.45;;;;;;;;;;5046218;28;20025;-52
2021/11/25 16:25:31;;;;;;;128.32;61.40;;;;;;;;;;5043922;28;20025;-53
2021/11/25 16:27:57;;;;;;;113.55;58.05;;;;;;;;;;5046009;28;20074;-53
2021/11/25 16:30:23;;;;;;;115.35;58.47;;;;;;;;;;5046168;28;20107;-50
2021/11/25 16:32:50;;;;;;;129.90;67.03;;;;;;;;;;5046329;28;20601;-51
2021/11/25 16:35:16;;;;;;;127.07;65.45;;;;;;;;;;5045792;28;20052;-52
2021/11/25 16:37:43;;;;;;;123.80;65.35;;;;;;;;;;5046029;28;20475;-53
2021/11/25 16:40:09;;;;;;;126.32;64.97;;;;;;;;;;5044679;28;20089;-52
2021/11/25 16:42:35;;;;;;;122.20;62.38;;;;;;;;;;5045278;28;20029;-52
2021/11/25 16:45:02;;;;;;;109.60;59.22;;;;;;;;;;5040278;28;20548;-53
2021/11/25 16:50:20;;;;;;;104.53;49.83;;;;;;;;;;5032849;28;20477;-53
2021/11/25 16:52:46;;;;;;;83.50;45.78;;;;;;;;;;5045361;28;20433;-51
2021/11/25 16:55:14;;;;;;;90.88;48.03;;;;;;;;;;5044790;28;20032;-52
2021/11/25 16:57:40;;;;;;;94.47;49.70;;;;;;;;;;5045421;28;20496;-52
2021/11/25 17:00:07;;;;;;;94.72;48.65;;;;;;;;;;5045673;28;20334;-49
2021/11/25 17:02:34;;;;;;;81.22;46.97;;;;;;;;;;5045366;28;20047;-51
2021/11/25 17:05:00;;;;;;;88.35;48.28;;;;;;;;;;5045402;28;20021;-50
2021/11/25 17:07:26;;;;;;;82.10;44.72;;;;;;;;;;5044863;28;20765;-51
2021/11/25 17:09:52;;;;;;;86.93;44.92;;;;;;;;;;5045095;28;20032;-50
2021/11/25 17:12:18;;;;;;;83.95;44.00;;;;;;;;;;5064245;28;20104;-54
2021/11/25 17:14:44;;;;;;;69.57;39.50;;;;;;;;;;5069234;28;20080;-54
2021/11/25 17:17:12;;;;;;;58.35;33.58;;;;;;;;;;5069451;28;20029;-53
2021/11/25 17:19:38;;;;;;;56.53;31.75;;;;;;;;;;5069571;28;20035;-53
2021/11/25 17:22:07;;;;;;;52.47;30.33;;;;;;;;;;5069482;28;20100;-53
2021/11/25 17:24:33;;;;;;;47.05;28.52;;;;;;;;;;5069164;28;20021;-53
2021/11/25 17:27:02;;;;;;;50.55;31.25;;;;;;;;;;5056006;28;20487;-53
2021/11/25 17:29:28;;;;;;;54.63;30.10;;;;;;;;;;5055998;28;20342;-53
2021/11/25 17:31:55;;;;;;;47.58;28.13;;;;;;;;;;5056105;28;20023;-54
2021/11/25 17:34:21;;;;;;;39.10;24.40;;;;;;;;;;5055810;28;20040;-53
2021/11/25 17:36:47;;;;;;;41.85;24.08;;;;;;;;;;5055881;28;20185;-53
2021/11/25 17:39:15;;;;;;;38.72;23.77;;;;;;;;;;5055809;28;20052;-53
2021/11/25 17:41:42;;;;;;;41.88;24.63;;;;;;;;;;5055615;28;20477;-51
2021/11/25 17:44:08;;;;;;;43.72;25.08;;;;;;;;;;5055816;28;20047;-52
2021/11/25 17:46:36;;;;;;;42.28;25.92;;;;;;;;;;5055967;28;20025;-54
2021/11/25 17:49:03;;;;;;;47.60;27.52;;;;;;;;;;5055600;28;20025;-53
2021/11/25 17:51:30;;;;;;;43.38;25.67;;;;;;;;;;5055628;28;20020;-53
2021/11/25 17:53:59;;;;;;;45.88;25.65;;;;;;;;;;5043468;28;20085;-52
2021/11/25 17:56:25;;;;;;;40.80;24.95;;;;;;;;;;5035091;28;20458;-55
2021/11/25 17:58:51;;;;;;;56.45;32.00;;;;;;;;;;5032198;28;20142;-53
2021/11/25 18:01:17;;;;;;;46.45;28.75;;;;;;;;;;5029964;28;20156;-50
2021/11/25 18:03:46;;;;;;;47.33;25.85;;;;;;;;;;5030530;28;20043;-51
2021/11/25 18:06:12;;;;;;;45.22;26.30;;;;;;;;;;5029327;28;20021;-49
2021/11/25 18:08:40;;;;;;;41.75;24.08;;;;;;;;;;5025749;28;20117;-49
2021/11/25 18:11:06;;;;;;;38.25;22.52;;;;;;;;;;5024344;28;20076;-50
2021/11/25 18:13:33;;;;;;;39.08;24.42;;;;;;;;;;5029617;28;20045;-50
2021/11/25 18:15:59;;;;;;;48.70;26.35;;;;;;;;;;5029078;28;20198;-49
2021/11/25 18:18:25;;;;;;;45.85;25.08;;;;;;;;;;5030123;28;20033;-50
2021/11/25 18:20:53;;;;;;;46.03;27.20;;;;;;;;;;5028079;28;20029;-50
2021/11/25 18:23:19;;;;;;;44.83;24.90;;;;;;;;;;5028296;28;20021;-51
2021/11/25 18:25:48;;;;;;;40.17;23.92;;;;;;;;;;5030801;28;20513;-50
2021/11/25 18:28:14;;;;;;;41.00;23.95;;;;;;;;;;5030724;28;20389;-49
2021/11/25 18:30:40;;;;;;;47.63;23.98;;;;;;;;;;5024941;28;20044;-49
2021/11/25 18:33:08;;;;;;;42.20;22.00;;;;;;;;;;5030434;28;20030;-50
2021/11/25 18:35:34;;;;;;;38.53;22.48;;;;;;;;;;5029003;28;20618;-49
2021/11/25 18:38:01;;;;;;;36.13;21.35;;;;;;;;;;5029469;28;20021;-51
2021/11/25 18:40:27;;;;;;;35.78;21.40;;;;;;;;;;5030221;28;20422;-49
2021/11/25 18:42:54;;;;;;;39.40;22.92;;;;;;;;;;5030459;28;20090;-50
2021/11/25 18:45:20;;;;;;;40.70;21.55;;;;;;;;;;5028542;28;20112;-52
2021/11/25 18:47:46;;;;;;;39.45;22.63;;;;;;;;;;5030152;28;20053;-50
2021/11/25 18:50:13;;;;;;;39.10;23.83;;;;;;;;;;5030082;28;20028;-50
2021/11/25 18:52:40;;;;;;;34.78;20.40;;;;;;;;;;5029042;28;20021;-48
2021/11/25 18:55:10;;;;;;;37.30;21.73;;;;;;;;;;5030160;28;20036;-51
2021/11/25 18:57:36;;;;;;;34.47;21.55;;;;;;;;;;5029641;28;20113;-53
2021/11/25 19:00:04;;;;;;;37.28;21.48;;;;;;;;;;5029532;28;20039;-50
2021/11/25 19:02:33;;;;;;;35.53;21.17;;;;;;;;;;5027989;28;20033;-50
2021/11/25 19:05:00;;;;;;;41.53;21.73;;;;;;;;;;5030235;28;20112;-50
2021/11/25 19:07:26;;;;;;;34.90;21.95;;;;;;;;;;5029933;28;20045;-52
2021/11/25 19:09:55;;;;;;;35.40;20.45;;;;;;;;;;5029857;28;20032;-52
2021/11/25 19:12:23;;;;;;;36.95;21.58;;;;;;;;;;5029187;28;20025;-49
2021/11/25 19:14:49;;;;;;;39.45;21.98;;;;;;;;;;5029797;28;20126;-51
2021/11/25 19:17:16;;;;;;;38.13;22.30;;;;;;;;;;5022041;28;20025;-50
2021/11/25 19:19:42;;;;;;;37.30;22.50;;;;;;;;;;5028784;28;20025;-50
2021/11/25 19:22:11;;;;;;;36.38;22.80;;;;;;;;;;5030104;28;20024;-51
2021/11/25 19:24:37;;;;;;;45.00;23.98;;;;;;;;;;5029733;28;20033;-49
2021/11/25 19:27:03;;;;;;;46.75;24.25;;;;;;;;;;5029581;28;20342;-50
2021/11/25 19:29:29;;;;;;;43.08;23.60;;;;;;;;;;5029400;28;20025;-52